Time;durP1;ratioP1;P1;durP2;ratioP2;P2;SDS_P1;SDS_P2;PMS_P1;PMS_P2;Temp;Humidity;BMP_temperature;BMP_pressure;BME280_temperature;BME280_humidity;BME280_pressure;Samples;Min_cycle;Max_cycle;Signal;HPM_P1;HPM_P2
2023/03/30 00:02:17;;;;;;;0.75;0.30;;;21.50;99.90;;;;;;4918286;29;20658;-76
2023/03/30 00:04:48;;;;;;;0.68;0.30;;;21.60;99.90;;;;;;4918144;29;20201;-78
2023/03/30 00:07:19;;;;;;;1.98;0.50;;;21.80;99.90;;;;;;4918148;29;20199;-75
2023/03/30 00:09:53;;;;;;;1.98;0.43;;;21.70;99.90;;;;;;4918027;29;20202;-74
2023/03/30 00:12:24;;;;;;;0.80;0.38;;;21.70;99.90;;;;;;4917660;29;20234;-81
2023/03/30 00:14:57;;;;;;;1.05;0.50;;;21.70;99.90;;;;;;4917744;29;20592;-75
2023/03/30 00:17:28;;;;;;;1.45;0.30;;;21.70;99.90;;;;;;4917322;29;20198;-76
2023/03/30 00:20:00;;;;;;;1.35;0.32;;;21.70;99.90;;;;;;4917945;29;20202;-77
2023/03/30 00:22:32;;;;;;;3.47;0.40;;;21.70;99.90;;;;;;4917914;29;20564;-76
2023/03/30 00:25:03;;;;;;;1.48;0.40;;;21.80;99.90;;;;;;4917584;29;20198;-78
2023/03/30 00:27:34;;;;;;;1.20;0.20;;;21.90;99.90;;;;;;4917837;29;20198;-78
2023/03/30 00:30:09;;;;;;;1.55;0.30;;;21.90;99.90;;;;;;4917670;29;20198;-77
2023/03/30 00:32:40;;;;;;;1.48;0.50;;;21.90;99.90;;;;;;4917652;29;20194;-78
2023/03/30 00:35:12;;;;;;;0.98;0.30;;;22.00;99.90;;;;;;4917528;29;20222;-79
2023/03/30 00:37:44;;;;;;;0.63;0.30;;;21.90;99.90;;;;;;4917608;29;20195;-77
2023/03/30 00:40:19;;;;;;;1.50;0.38;;;22.10;99.90;;;;;;4917322;29;20669;-77
2023/03/30 00:42:50;;;;;;;2.47;0.50;;;22.10;99.90;;;;;;4917585;29;20653;-75
2023/03/30 00:45:26;;;;;;;1.98;0.70;;;22.20;99.90;;;;;;4917355;29;20191;-76
2023/03/30 00:48:05;;;;;;;2.00;1.00;;;22.20;99.90;;;;;;4917965;29;20197;-78
2023/03/30 00:50:39;;;;;;;0.90;0.50;;;22.40;99.90;;;;;;4917805;29;20250;-75
2023/03/30 00:53:16;;;;;;;0.90;0.45;;;22.60;99.90;;;;;;4917391;29;20213;-74
2023/03/30 00:55:49;;;;;;;0.60;0.40;;;22.60;99.90;;;;;;4917035;29;20226;-84
2023/03/30 00:58:23;;;;;;;1.48;0.30;;;22.60;99.90;;;;;;4917386;29;20650;-77
2023/03/30 01:00:57;;;;;;;0.75;0.30;;;22.80;99.90;;;;;;4917245;29;20203;-77
2023/03/30 01:03:32;;;;;;;0.70;0.40;;;22.90;99.90;;;;;;4917250;29;20194;-79
2023/03/30 01:06:06;;;;;;;0.68;0.40;;;22.90;99.90;;;;;;4917225;29;20198;-76
2023/03/30 01:08:38;;;;;;;0.77;0.28;;;23.00;99.90;;;;;;4917105;29;20201;-78
2023/03/30 01:11:10;;;;;;;1.30;0.32;;;23.10;99.90;;;;;;4917195;29;20199;-79
2023/03/30 01:13:43;;;;;;;0.50;0.30;;;23.20;99.90;;;;;;4917177;29;20703;-79
2023/03/30 01:16:26;;;;;;;0.90;0.30;;;23.30;99.90;;;;;;4917059;29;20198;-78
2023/03/30 01:19:07;;;;;;;0.73;0.50;;;23.30;99.90;;;;;;4914621;29;20565;-78
2023/03/30 01:22:03;;;;;;;0.93;0.50;;;23.30;99.90;;;;;;4906276;29;20194;-75
2023/03/30 01:25:05;;;;;;;4.32;1.75;;;23.20;99.90;;;;;;4916952;29;20210;-78
2023/03/30 01:28:15;;;;;;;1.15;0.80;;;23.30;99.90;;;;;;4912638;29;20216;-78
2023/03/30 01:31:06;;;;;;;1.40;0.90;;;23.30;99.90;;;;;;4921168;29;20198;-78
2023/03/30 01:34:19;;;;;;;2.70;0.60;;;23.30;99.90;;;;;;4920976;29;20554;-77
2023/03/30 01:37:16;;;;;;;1.48;0.30;;;23.30;99.90;;;;;;4920935;29;20216;-77
2023/03/30 01:39:56;;;;;;;0.70;0.32;;;23.50;99.90;;;;;;4920899;29;20194;-83
2023/03/30 01:42:35;;;;;;;2.38;0.98;;;23.60;99.90;;;;;;4920798;29;20194;-78
2023/03/30 01:45:16;;;;;;;1.08;0.30;;;23.80;99.90;;;;;;4920775;29;20560;-76
2023/03/30 01:47:55;;;;;;;0.57;0.20;;;23.80;99.90;;;;;;4920918;29;20206;-78
2023/03/30 01:50:31;;;;;;;1.10;0.20;;;23.80;99.90;;;;;;4920758;29;20194;-80
2023/03/30 01:53:07;;;;;;;0.30;0.20;;;23.80;99.90;;;;;;4920873;29;20195;-83
2023/03/30 01:55:43;;;;;;;2.15;0.47;;;23.80;99.90;;;;;;4920623;29;20697;-77
2023/03/30 01:58:20;;;;;;;0.68;0.20;;;23.80;99.90;;;;;;4920692;29;20204;-81
2023/03/30 02:00:52;;;;;;;2.38;0.20;;;23.90;99.90;;;;;;4920890;29;20205;-80
2023/03/30 02:03:28;;;;;;;0.65;0.65;;;24.00;99.90;;;;;;4919791;29;20213;-79
2023/03/30 02:06:03;;;;;;;1.98;0.30;;;24.00;99.90;;;;;;4915372;29;20607;-78
2023/03/30 02:08:37;;;;;;;0.30;0.22;;;23.90;99.90;;;;;;4916825;29;21131;-79
2023/03/30 02:11:10;;;;;;;0.20;0.20;;;23.70;99.90;;;;;;4917781;29;20226;-79
2023/03/30 02:13:43;;;;;;;2.20;0.30;;;23.70;99.90;;;;;;4914545;29;20240;-76
2023/03/30 02:16:19;;;;;;;0.20;0.20;;;23.80;99.90;;;;;;4915031;29;20214;-79
2023/03/30 02:18:50;;;;;;;1.00;0.30;;;23.90;99.90;;;;;;4919847;29;20208;-76
2023/03/30 02:21:21;;;;;;;0.32;0.20;;;24.00;99.90;;;;;;4920154;29;20191;-78
2023/03/30 02:23:56;;;;;;;0.82;0.20;;;24.00;99.90;;;;;;4918038;29;20201;-76
2023/03/30 02:26:30;;;;;;;1.55;0.35;;;24.00;99.90;;;;;;4919090;29;20281;-78
2023/03/30 02:29:01;;;;;;;0.55;0.30;;;24.00;99.90;;;;;;4911817;29;20209;-82
2023/03/30 02:31:33;;;;;;;0.68;0.40;;;24.00;99.90;;;;;;4918622;29;20210;-75
2023/03/30 02:34:14;;;;;;;1.05;0.35;;;24.00;99.90;;;;;;4918263;29;20237;-79
2023/03/30 02:37:04;;;;;;;0.52;0.28;;;24.20;99.90;;;;;;4917834;29;20218;-80
2023/03/30 02:39:49;;;;;;;1.70;0.40;;;24.10;99.90;;;;;;4917699;29;20293;-76
2023/03/30 02:42:44;;;;;;;0.70;0.20;;;24.00;99.90;;;;;;4919095;29;20202;-77
2023/03/30 02:45:30;;;;;;;1.33;0.25;;;23.80;99.90;;;;;;4919145;29;20193;-78
2023/03/30 02:48:26;;;;;;;0.70;0.30;;;24.00;99.90;;;;;;4913584;29;20208;-78
2023/03/30 02:51:07;;;;;;;0.38;0.35;;;24.20;99.90;;;;;;4902332;29;20280;-76
2023/03/30 02:53:46;;;;;;;2.28;0.30;;;24.40;99.90;;;;;;4916282;29;20232;-78
2023/03/30 02:56:23;;;;;;;0.63;0.25;;;24.30;99.90;;;;;;4916087;29;20291;-77
2023/03/30 02:58:59;;;;;;;1.58;0.10;;;24.30;99.90;;;;;;4916344;29;20201;-78
2023/03/30 03:01:37;;;;;;;1.23;0.20;;;24.10;99.90;;;;;;4915435;29;20224;-77
2023/03/30 03:04:11;;;;;;;2.08;0.30;;;24.10;99.90;;;;;;4916705;29;20716;-77
2023/03/30 03:06:43;;;;;;;0.52;0.28;;;24.00;99.90;;;;;;4915447;29;20202;-78
2023/03/30 03:09:15;;;;;;;1.02;0.38;;;24.20;99.90;;;;;;4916639;29;20316;-77
2023/03/30 03:11:46;;;;;;;0.20;0.10;;;24.30;99.90;;;;;;4917960;29;20194;-77
2023/03/30 03:14:19;;;;;;;3.70;0.20;;;24.50;99.90;;;;;;4908652;29;20234;-76
2023/03/30 03:16:50;;;;;;;0.73;0.20;;;24.40;99.90;;;;;;4918977;29;20218;-76
2023/03/30 03:19:22;;;;;;;0.40;0.28;;;24.30;99.90;;;;;;4918771;29;20199;-77
2023/03/30 03:21:53;;;;;;;0.98;0.30;;;24.40;99.90;;;;;;4918717;29;20213;-77
2023/03/30 03:24:24;;;;;;;1.55;0.20;;;24.50;99.90;;;;;;4918832;29;20198;-80
2023/03/30 03:26:55;;;;;;;0.63;0.22;;;24.50;99.90;;;;;;4918800;29;20198;-77
2023/03/30 03:29:28;;;;;;;0.57;0.30;;;24.60;99.90;;;;;;4918577;29;20248;-76
2023/03/30 03:31:59;;;;;;;0.55;0.40;;;24.70;99.90;;;;;;4917639;29;20206;-79
2023/03/30 03:34:31;;;;;;;0.40;0.20;;;24.70;99.90;;;;;;4918460;29;20568;-77
2023/03/30 03:37:02;;;;;;;0.60;0.20;;;24.40;99.90;;;;;;4918572;29;20209;-78
2023/03/30 03:39:34;;;;;;;0.25;0.20;;;24.20;99.90;;;;;;4918483;29;20599;-78
2023/03/30 03:42:06;;;;;;;1.10;0.20;;;24.20;99.90;;;;;;4918608;29;20681;-78
2023/03/30 03:44:39;;;;;;;0.22;0.20;;;24.00;99.90;;;;;;4918587;29;20195;-78
2023/03/30 03:47:12;;;;;;;0.40;0.20;;;24.10;99.90;;;;;;4907816;29;20213;-77
2023/03/30 03:49:43;;;;;;;0.47;0.30;;;24.40;99.90;;;;;;4909537;29;20191;-84
2023/03/30 03:52:14;;;;;;;0.47;0.13;;;24.50;99.90;;;;;;4916684;29;20199;-77
2023/03/30 03:54:45;;;;;;;0.65;0.20;;;24.50;99.90;;;;;;4916493;29;20677;-79
2023/03/30 03:57:16;;;;;;;0.57;0.40;;;24.30;99.90;;;;;;4916816;29;20210;-78
2023/03/30 03:59:50;;;;;;;1.10;0.57;;;24.40;99.90;;;;;;4918135;29;20213;-78
2023/03/30 04:02:21;;;;;;;0.60;0.20;;;24.30;99.90;;;;;;4916167;29;20198;-78
2023/03/30 04:04:52;;;;;;;1.15;0.20;;;24.20;99.90;;;;;;4918110;29;20195;-77
2023/03/30 04:07:24;;;;;;;0.28;0.20;;;24.20;99.90;;;;;;4916731;29;20251;-76
2023/03/30 04:09:55;;;;;;;0.20;0.20;;;24.30;99.90;;;;;;4918171;29;20643;-78
2023/03/30 04:12:27;;;;;;;1.10;0.30;;;24.50;99.90;;;;;;4917561;29;20591;-78
2023/03/30 04:15:00;;;;;;;1.85;0.22;;;24.40;99.90;;;;;;4917966;29;20562;-78
2023/03/30 04:17:32;;;;;;;1.88;0.40;;;24.30;99.90;;;;;;4916220;29;20206;-79
2023/03/30 04:20:04;;;;;;;0.80;0.25;;;24.40;99.90;;;;;;4917873;29;20565;-77
2023/03/30 04:22:40;;;;;;;2.72;0.40;;;24.20;99.90;;;;;;4910936;29;20203;-78
2023/03/30 04:25:13;;;;;;;0.52;0.20;;;24.10;99.90;;;;;;4916811;29;20742;-78
2023/03/30 04:27:49;;;;;;;0.40;0.28;;;24.00;99.90;;;;;;4915220;29;20198;-78
2023/03/30 04:30:23;;;;;;;0.73;0.20;;;24.00;99.90;;;;;;4915273;29;20257;-76
2023/03/30 04:33:01;;;;;;;1.45;0.20;;;24.00;99.90;;;;;;4911122;29;20248;-78
2023/03/30 04:35:34;;;;;;;0.28;0.20;;;24.10;99.90;;;;;;4906270;29;20222;-77
2023/03/30 04:38:06;;;;;;;0.63;0.50;;;24.30;99.90;;;;;;4916494;29;20206;-79
2023/03/30 04:40:37;;;;;;;1.65;0.47;;;24.30;99.90;;;;;;4913001;29;20286;-76
2023/03/30 04:43:08;;;;;;;1.15;0.32;;;24.30;99.90;;;;;;4915482;29;20202;-77
2023/03/30 04:45:41;;;;;;;0.82;0.32;;;24.10;99.90;;;;;;4916474;29;20685;-78
2023/03/30 04:48:12;;;;;;;0.52;0.40;;;24.00;99.90;;;;;;4909074;29;20202;-79
2023/03/30 04:50:44;;;;;;;3.00;0.50;;;24.00;99.90;;;;;;4917128;29;20559;-78
2023/03/30 04:53:16;;;;;;;0.80;0.38;;;23.80;99.90;;;;;;4915899;29;20351;-78
2023/03/30 04:55:51;;;;;;;1.15;0.50;;;23.70;99.90;;;;;;4915571;29;20214;-78
2023/03/30 04:58:22;;;;;;;1.63;0.52;;;23.50;99.90;;;;;;4914408;29;20209;-77
2023/03/30 05:00:56;;;;;;;2.42;0.40;;;23.50;99.90;;;;;;4916375;29;20233;-78
2023/03/30 05:03:28;;;;;;;1.05;0.52;;;23.50;99.90;;;;;;4915567;29;20201;-77
2023/03/30 05:05:59;;;;;;;0.60;0.30;;;23.60;99.90;;;;;;4911127;29;20199;-78
2023/03/30 05:08:31;;;;;;;2.17;0.30;;;23.70;99.90;;;;;;4913966;29;20205;-78
2023/03/30 05:11:04;;;;;;;0.50;0.30;;;23.80;99.90;;;;;;4914180;29;20572;-79
2023/03/30 05:13:35;;;;;;;2.30;0.70;;;23.80;99.90;;;;;;4916007;29;20242;-78
2023/03/30 05:16:09;;;;;;;0.95;0.43;;;23.90;99.90;;;;;;4914903;29;20217;-78
2023/03/30 05:18:40;;;;;;;0.40;0.20;;;23.90;99.90;;;;;;4916904;29;20198;-78
2023/03/30 05:21:11;;;;;;;0.43;0.30;;;24.00;99.90;;;;;;4913366;29;20195;-77
2023/03/30 05:23:42;;;;;;;1.25;0.20;;;24.30;99.90;;;;;;4914174;29;20202;-76
2023/03/30 05:26:13;;;;;;;0.57;0.20;;;24.40;99.90;;;;;;4914805;29;20222;-77
2023/03/30 05:28:46;;;;;;;0.32;0.20;;;24.60;99.90;;;;;;4914513;29;20209;-79
2023/03/30 05:31:19;;;;;;;0.70;0.30;;;24.60;99.90;;;;;;4915222;29;20288;-78
2023/03/30 05:33:50;;;;;;;0.30;0.30;;;24.50;99.90;;;;;;4917025;29;20209;-77
2023/03/30 05:36:22;;;;;;;0.98;0.47;;;24.30;99.90;;;;;;4916032;29;20244;-77
2023/03/30 05:38:53;;;;;;;1.08;0.38;;;24.20;99.90;;;;;;4917042;29;20202;-78
2023/03/30 05:41:26;;;;;;;0.50;0.30;;;24.00;99.90;;;;;;4916364;29;20232;-77
2023/03/30 05:43:57;;;;;;;0.55;0.30;;;24.00;99.90;;;;;;4915725;29;20206;-79
2023/03/30 05:46:30;;;;;;;0.50;0.20;;;24.10;99.90;;;;;;4915204;29;20576;-78
2023/03/30 05:49:01;;;;;;;0.25;0.10;;;24.10;99.90;;;;;;4916063;29;20576;-77
2023/03/30 05:51:32;;;;;;;0.98;0.22;;;24.20;99.90;;;;;;4913379;29;20206;-79
2023/03/30 05:54:04;;;;;;;0.90;0.52;;;24.30;99.90;;;;;;4916366;29;20561;-80
2023/03/30 05:56:35;;;;;;;6.95;5.65;;;24.40;99.90;;;;;;4914747;29;20277;-78
2023/03/30 05:59:06;;;;;;;1.27;0.45;;;24.50;99.90;;;;;;4911521;29;20289;-79
2023/03/30 06:01:39;;;;;;;0.90;0.43;;;24.50;99.90;;;;;;4912795;29;20206;-77
2023/03/30 06:04:10;;;;;;;0.68;0.20;;;24.40;99.90;;;;;;4913958;29;20552;-77
2023/03/30 06:06:41;;;;;;;7.00;5.93;;;24.20;99.90;;;;;;4916737;29;20198;-79
2023/03/30 06:09:13;;;;;;;3.30;2.33;;;24.00;99.90;;;;;;4916387;29;20191;-77
2023/03/30 06:11:44;;;;;;;0.47;0.30;;;23.80;99.90;;;;;;4915185;29;20195;-78
2023/03/30 06:14:16;;;;;;;0.77;0.30;;;23.80;99.90;;;;;;4916968;29;20238;-76
2023/03/30 06:16:49;;;;;;;0.80;0.20;;;23.90;99.90;;;;;;4918413;29;20222;-77
2023/03/30 06:19:20;;;;;;;2.70;0.25;;;24.00;99.90;;;;;;4919405;29;20202;-78
2023/03/30 06:21:51;;;;;;;0.68;0.40;;;24.00;99.90;;;;;;4919579;29;20576;-78
2023/03/30 06:24:22;;;;;;;0.60;0.10;;;24.10;99.90;;;;;;4920378;29;20190;-78
2023/03/30 06:26:54;;;;;;;0.50;0.20;;;24.20;99.90;;;;;;4916998;29;20210;-77
2023/03/30 06:29:26;;;;;;;0.10;0.10;;;24.20;99.90;;;;;;4919772;29;20275;-76
2023/03/30 06:31:59;;;;;;;0.60;0.20;;;24.20;99.90;;;;;;4919976;29;20201;-76
2023/03/30 06:34:30;;;;;;;0.40;0.25;;;24.20;99.90;;;;;;4917515;29;20237;-78
2023/03/30 06:37:01;;;;;;;0.30;0.20;;;24.10;99.90;;;;;;4915500;29;20229;-77
2023/03/30 06:39:36;;;;;;;0.70;0.30;;;24.10;99.90;;;;;;4916746;29;20893;-77
2023/03/30 06:42:07;;;;;;;1.70;0.30;;;24.10;99.90;;;;;;4910661;29;20208;-77
2023/03/30 06:44:38;;;;;;;0.90;0.30;;;24.10;99.90;;;;;;4918642;29;20686;-78
2023/03/30 06:47:11;;;;;;;0.98;0.30;;;24.20;99.90;;;;;;4915993;29;20210;-78
2023/03/30 06:49:42;;;;;;;1.05;0.40;;;24.30;99.90;;;;;;4913972;29;20683;-77
2023/03/30 06:52:14;;;;;;;0.10;0.10;;;24.10;99.90;;;;;;4918990;29;20537;-77
2023/03/30 06:54:45;;;;;;;1.48;0.30;;;23.90;99.90;;;;;;4917100;29;20199;-77
2023/03/30 06:57:16;;;;;;;1.45;0.30;;;23.70;99.90;;;;;;4918344;29;20218;-77
2023/03/30 06:59:47;;;;;;;0.95;0.20;;;23.50;99.90;;;;;;4912877;29;20557;-79
2023/03/30 07:02:20;;;;;;;0.17;0.10;;;23.50;99.90;;;;;;4910884;29;20202;-76
2023/03/30 07:04:51;;;;;;;1.02;0.38;;;23.50;99.90;;;;;;4915206;29;20270;-77
2023/03/30 07:07:22;;;;;;;0.68;0.32;;;23.50;99.90;;;;;;4918234;29;20210;-76
2023/03/30 07:09:54;;;;;;;1.23;0.30;;;23.50;99.90;;;;;;4918628;29;20206;-76
2023/03/30 07:12:25;;;;;;;0.30;0.20;;;23.50;99.90;;;;;;4914264;29;20238;-77
2023/03/30 07:14:56;;;;;;;1.45;0.50;;;23.50;99.90;;;;;;4915874;29;20695;-79
2023/03/30 07:17:29;;;;;;;0.65;0.20;;;23.50;99.90;;;;;;4917080;29;20233;-76
2023/03/30 07:20:01;;;;;;;7.85;6.22;;;23.50;99.90;;;;;;4915608;29;20685;-78
2023/03/30 07:22:32;;;;;;;2.95;2.45;;;23.50;99.90;;;;;;4915611;29;20199;-78
2023/03/30 07:25:03;;;;;;;4.30;1.88;;;23.40;99.90;;;;;;4917482;29;20206;-77
2023/03/30 07:27:34;;;;;;;1.33;1.02;;;23.40;99.90;;;;;;4911078;29;20209;-78
2023/03/30 07:30:06;;;;;;;0.73;0.50;;;23.30;99.90;;;;;;4915863;29;20198;-77
2023/03/30 07:32:39;;;;;;;1.10;0.30;;;23.30;99.90;;;;;;4909348;29;20651;-77
2023/03/30 07:35:11;;;;;;;1.52;0.40;;;23.20;99.90;;;;;;4915387;29;20717;-77
2023/03/30 07:37:42;;;;;;;0.82;0.32;;;23.10;99.90;;;;;;4909700;29;20588;-78
2023/03/30 07:40:14;;;;;;;1.33;0.30;;;23.00;99.90;;;;;;4916835;29;20643;-80
2023/03/30 07:42:46;;;;;;;0.85;0.40;;;23.00;99.90;;;;;;4911331;29;20541;-77
2023/03/30 07:45:17;;;;;;;2.00;0.35;;;22.90;99.90;;;;;;4910808;29;20226;-78
2023/03/30 07:47:50;;;;;;;0.38;0.30;;;22.80;99.90;;;;;;4914864;29;20205;-78
2023/03/30 07:50:21;;;;;;;0.30;0.30;;;22.70;99.90;;;;;;4916568;29;20238;-78
2023/03/30 07:52:54;;;;;;;1.30;0.40;;;22.60;99.90;;;;;;4917497;29;20206;-78
2023/03/30 07:55:27;;;;;;;0.73;0.38;;;22.60;99.90;;;;;;4916739;29;20281;-78
2023/03/30 07:57:58;;;;;;;1.20;0.60;;;22.50;99.90;;;;;;4918735;23;20243;-75
2023/03/30 08:00:30;;;;;;;2.85;0.50;;;22.40;99.90;;;;;;4903485;29;20218;-75
2023/03/30 08:03:03;;;;;;;2.25;0.50;;;22.40;99.90;;;;;;4917672;29;20658;-76
2023/03/30 08:05:34;;;;;;;0.82;0.55;;;22.40;99.90;;;;;;4913800;29;20202;-76
2023/03/30 08:08:06;;;;;;;1.05;0.50;;;22.30;99.90;;;;;;4914878;29;20202;-76
2023/03/30 08:10:38;;;;;;;1.25;0.60;;;22.20;99.90;;;;;;4914750;29;20202;-76
2023/03/30 08:13:09;;;;;;;1.00;0.60;;;22.20;99.90;;;;;;4914839;29;20229;-75
2023/03/30 08:15:40;;;;;;;0.90;0.57;;;22.10;99.90;;;;;;4915126;29;20203;-76
2023/03/30 08:18:13;;;;;;;1.63;0.50;;;22.10;99.90;;;;;;4917418;29;20222;-75
2023/03/30 08:20:45;;;;;;;1.52;0.55;;;22.00;99.90;;;;;;4916151;29;20195;-76
2023/03/30 08:23:16;;;;;;;1.08;0.60;;;22.00;99.90;;;;;;4916727;29;20477;-75
2023/03/30 08:25:51;;;;;;;0.80;0.50;;;21.90;99.90;;;;;;4915319;29;20708;-75
2023/03/30 08:28:23;;;;;;;1.83;0.40;;;21.90;99.90;;;;;;4916115;29;20261;-75
2023/03/30 08:30:54;;;;;;;0.98;0.55;;;21.90;99.90;;;;;;4915055;29;20202;-75
2023/03/30 08:33:27;;;;;;;1.50;0.65;;;21.80;99.90;;;;;;4914760;29;20206;-75
2023/03/30 08:35:58;;;;;;;0.60;0.40;;;21.80;99.90;;;;;;4914660;29;20748;-76
2023/03/30 08:38:29;;;;;;;1.60;0.55;;;21.70;99.90;;;;;;4913205;29;20232;-76
2023/03/30 08:41:00;;;;;;;1.42;0.60;;;21.70;99.90;;;;;;4914709;29;20202;-76
2023/03/30 08:43:51;;;;;;;1.70;0.60;;;21.60;99.90;;;;;;4916527;29;20202;-76
2023/03/30 08:46:23;;;;;;;2.47;0.50;;;21.60;99.90;;;;;;4915210;29;20205;-76
2023/03/30 08:49:00;;;;;;;0.70;0.32;;;21.50;99.90;;;;;;4907458;29;20202;-75
2023/03/30 08:51:32;;;;;;;1.42;0.50;;;21.50;99.90;;;;;;4916802;29;20201;-76
2023/03/30 08:54:05;;;;;;;1.80;0.50;;;21.40;99.90;;;;;;4915425;29;20203;-76
2023/03/30 08:56:40;;;;;;;1.08;0.40;;;21.40;99.90;;;;;;4902688;29;20235;-76
2023/03/30 08:59:23;;;;;;;1.35;0.40;;;21.30;99.90;;;;;;4898891;29;20777;-76
2023/03/30 09:01:59;;;;;;;0.98;0.50;;;21.30;99.90;;;;;;4900496;29;20199;-75
2023/03/30 09:04:45;;;;;;;1.90;0.50;;;21.20;99.90;;;;;;4908482;29;20241;-76
2023/03/30 09:07:22;;;;;;;0.85;0.30;;;21.10;99.90;;;;;;4902237;29;20206;-76
2023/03/30 09:09:54;;;;;;;0.82;0.30;;;21.10;99.90;;;;;;4892328;29;20690;-78
2023/03/30 09:12:40;;;;;;;2.75;0.50;;;21.10;99.90;;;;;;4905273;29;20202;-75
2023/03/30 09:15:18;;;;;;;0.85;0.30;;;21.00;99.90;;;;;;4911214;29;20203;-75
2023/03/30 09:17:52;;;;;;;1.50;0.50;;;21.00;99.90;;;;;;4899120;29;20309;-76
2023/03/30 09:20:28;;;;;;;1.27;0.40;;;20.90;99.90;;;;;;4897884;29;20217;-76
2023/03/30 09:23:03;;;;;;;0.55;0.40;;;20.90;99.90;;;;;;4897240;29;20561;-76
2023/03/30 09:25:41;;;;;;;0.63;0.40;;;20.90;99.90;;;;;;4904565;29;20210;-75
2023/03/30 09:28:20;;;;;;;1.63;0.35;;;20.80;99.90;;;;;;4901984;29;20654;-76
2023/03/30 09:30:55;;;;;;;1.30;0.40;;;20.80;99.90;;;;;;4890785;29;20282;-76
2023/03/30 09:33:33;;;;;;;1.73;0.30;;;20.70;99.90;;;;;;4885503;29;20662;-75
2023/03/30 09:36:15;;;;;;;3.22;0.50;;;20.70;99.90;;;;;;4904740;29;20269;-76
2023/03/30 09:38:47;;;;;;;0.98;0.40;;;20.70;99.90;;;;;;4900044;29;20241;-76
2023/03/30 09:41:34;;;;;;;0.65;0.40;;;20.60;99.90;;;;;;4899298;29;20206;-76
2023/03/30 09:44:05;;;;;;;0.55;0.25;;;20.60;99.90;;;;;;4893465;29;20203;-76
2023/03/30 09:46:37;;;;;;;1.52;0.40;;;20.50;99.90;;;;;;4896030;29;20211;-76
2023/03/30 09:49:18;;;;;;;0.70;0.40;;;20.50;99.90;;;;;;4900521;29;20205;-76
2023/03/30 09:52:07;;;;;;;0.45;0.30;;;20.40;99.90;;;;;;4898838;29;20555;-76
2023/03/30 09:54:39;;;;;;;0.88;0.40;;;20.40;99.90;;;;;;4897879;29;20222;-75
2023/03/30 09:57:26;;;;;;;2.63;0.50;;;20.30;99.90;;;;;;4912154;29;20242;-76
2023/03/30 09:59:58;;;;;;;0.93;0.30;;;20.40;99.90;;;;;;4902010;29;20213;-76
2023/03/30 10:02:32;;;;;;;0.65;0.30;;;20.30;99.90;;;;;;4904092;29;20209;-76
2023/03/30 10:05:07;;;;;;;0.77;0.30;;;20.30;99.90;;;;;;4915235;29;20284;-76
2023/03/30 10:07:42;;;;;;;1.52;0.28;;;20.30;99.90;;;;;;4910601;29;20673;-77
2023/03/30 10:10:30;;;;;;;0.85;0.30;;;20.20;99.90;;;;;;4899197;29;20206;-76
2023/03/30 10:13:08;;;;;;;0.90;0.32;;;20.20;99.90;;;;;;4896460;29;20203;-76
2023/03/30 10:15:42;;;;;;;0.63;0.32;;;20.20;99.90;;;;;;4898401;29;20202;-76
2023/03/30 10:18:26;;;;;;;3.10;0.50;;;20.20;99.90;;;;;;4912205;29;20708;-76
2023/03/30 10:21:02;;;;;;;1.23;0.30;;;20.10;99.90;;;;;;4904234;29;20219;-77
2023/03/30 10:23:40;;;;;;;0.88;0.40;;;20.10;99.90;;;;;;4900587;29;20206;-76
2023/03/30 10:26:17;;;;;;;2.50;0.40;;;20.00;99.90;;;;;;4914574;29;20205;-76
2023/03/30 10:28:57;;;;;;;0.63;0.20;;;20.00;99.90;;;;;;4902947;29;20579;-76
2023/03/30 10:31:28;;;;;;;1.52;0.30;;;20.00;99.90;;;;;;4881151;29;20211;-76
2023/03/30 10:34:01;;;;;;;0.90;0.20;;;19.90;99.90;;;;;;4884797;29;20289;-76
2023/03/30 10:36:35;;;;;;;1.70;0.40;;;19.90;99.90;;;;;;4899193;29;20199;-76
2023/03/30 10:39:17;;;;;;;3.15;0.60;;;19.80;99.90;;;;;;4894112;29;20243;-76
2023/03/30 10:41:51;;;;;;;0.60;0.30;;;19.80;99.90;;;;;;4900339;29;20199;-76
2023/03/30 10:44:27;;;;;;;2.22;0.35;;;19.80;99.90;;;;;;4892225;29;20660;-76
2023/03/30 10:47:14;;;;;;;1.50;0.40;;;19.70;99.90;;;;;;4900939;29;20199;-76
2023/03/30 10:49:55;;;;;;;1.05;0.40;;;19.70;99.90;;;;;;4882387;29;20206;-78
2023/03/30 10:52:35;;;;;;;1.60;0.50;;;19.70;99.90;;;;;;4900188;29;20663;-76
2023/03/30 10:55:17;;;;;;;1.73;0.43;;;19.70;99.90;;;;;;4900073;29;20211;-76
2023/03/30 10:57:58;;;;;;;0.60;0.40;;;19.70;99.90;;;;;;4900404;29;20247;-77
2023/03/30 11:00:39;;;;;;;1.10;0.43;;;19.60;99.90;;;;;;4898737;29;20195;-77
2023/03/30 11:03:14;;;;;;;1.67;0.40;;;19.60;99.90;;;;;;4881760;29;20282;-76
2023/03/30 11:05:49;;;;;;;1.25;0.30;;;19.60;99.90;;;;;;4881979;29;20199;-76
2023/03/30 11:08:24;;;;;;;1.75;0.40;;;19.60;99.90;;;;;;4887219;29;20573;-76
2023/03/30 11:11:00;;;;;;;1.13;0.82;;;19.60;99.90;;;;;;4900523;29;20639;-76
2023/03/30 11:13:37;;;;;;;1.50;0.47;;;19.50;99.90;;;;;;4896824;29;20597;-76
2023/03/30 11:16:13;;;;;;;0.45;0.30;;;19.50;99.90;;;;;;4881815;29;20199;-76
2023/03/30 11:18:51;;;;;;;1.65;0.43;;;19.50;99.90;;;;;;4888092;29;20222;-75
2023/03/30 11:21:28;;;;;;;1.45;0.47;;;19.50;99.90;;;;;;4893066;29;20195;-76
2023/03/30 11:24:06;;;;;;;1.52;0.68;;;19.50;99.90;;;;;;4900309;29;20659;-76
2023/03/30 11:26:45;;;;;;;1.48;0.60;;;19.50;99.90;;;;;;4900294;29;20194;-76
2023/03/30 11:29:32;;;;;;;1.80;0.60;;;19.50;99.90;;;;;;4900311;29;20285;-75
2023/03/30 11:32:21;;;;;;;5.65;0.77;;;19.50;99.90;;;;;;4896086;29;20207;-75
2023/03/30 11:35:00;;;;;;;2.05;0.70;;;19.40;99.90;;;;;;4898082;29;20206;-76
2023/03/30 11:37:37;;;;;;;1.67;0.60;;;19.40;99.90;;;;;;4899328;29;20233;-76
2023/03/30 11:40:19;;;;;;;1.48;0.50;;;19.40;99.90;;;;;;4899457;29;20709;-76
2023/03/30 11:42:52;;;;;;;2.10;0.50;;;19.30;99.90;;;;;;4898097;29;20650;-76
2023/03/30 11:45:43;;;;;;;1.75;0.55;;;19.30;99.90;;;;;;4899403;29;20214;-76
2023/03/30 11:48:26;;;;;;;1.75;0.57;;;19.30;99.90;;;;;;4883412;29;20211;-76
2023/03/30 11:51:08;;;;;;;1.33;0.80;;;19.30;99.90;;;;;;4898709;29;20198;-76
2023/03/30 11:53:50;;;;;;;0.60;0.30;;;19.30;99.90;;;;;;4894172;29;20202;-75
2023/03/30 11:56:30;;;;;;;0.80;0.30;;;19.20;99.90;;;;;;4894517;29;20230;-76
2023/03/30 11:59:06;;;;;;;2.63;0.60;;;19.20;99.90;;;;;;4889341;29;20632;-77
2023/03/30 12:01:49;;;;;;;2.13;0.43;;;19.20;99.90;;;;;;4898566;29;20198;-76
2023/03/30 12:04:28;;;;;;;1.52;0.50;;;19.20;99.90;;;;;;4889001;29;20199;-76
2023/03/30 12:07:02;;;;;;;0.65;0.40;;;19.20;99.90;;;;;;4898293;29;20700;-77
2023/03/30 12:09:36;;;;;;;1.30;0.40;;;19.10;99.90;;;;;;4893148;29;20202;-76
2023/03/30 12:12:14;;;;;;;1.38;0.40;;;19.10;99.90;;;;;;4898664;29;20211;-76
2023/03/30 12:15:02;;;;;;;0.82;0.50;;;19.10;99.90;;;;;;4897614;29;20214;-76
2023/03/30 12:17:51;;;;;;;1.10;0.40;;;19.00;99.90;;;;;;4897990;29;20203;-76
2023/03/30 12:20:40;;;;;;;0.82;0.30;;;19.00;99.90;;;;;;4896864;29;20213;-77
2023/03/30 12:23:28;;;;;;;1.13;0.30;;;19.00;99.90;;;;;;4893455;29;20564;-76
2023/03/30 12:26:25;;;;;;;0.90;0.32;;;18.90;99.90;;;;;;4898211;29;20207;-76
2023/03/30 12:29:09;;;;;;;2.42;0.45;;;18.90;99.90;;;;;;4897605;29;20234;-76
2023/03/30 12:32:09;;;;;;;1.10;0.30;;;18.90;99.90;;;;;;4898898;29;20191;-75
2023/03/30 12:34:43;;;;;;;0.30;0.30;;;18.90;99.90;;;;;;4893935;29;20619;-76
2023/03/30 12:37:19;;;;;;;0.70;0.20;;;18.80;99.90;;;;;;4891277;29;20298;-76
2023/03/30 12:39:56;;;;;;;0.80;0.32;;;18.80;99.90;;;;;;4897454;29;20210;-75
2023/03/30 12:42:33;;;;;;;1.55;0.52;;;18.80;99.90;;;;;;4896881;29;20290;-76
2023/03/30 12:45:32;;;;;;;1.73;0.63;;;18.80;99.90;;;;;;4897748;29;20206;-76
2023/03/30 12:48:23;;;;;;;1.35;0.70;;;18.80;99.90;;;;;;4897776;29;20207;-75
2023/03/30 12:51:09;;;;;;;2.15;0.60;;;18.70;99.90;;;;;;4898040;29;20203;-75
2023/03/30 12:53:55;;;;;;;1.40;0.40;;;18.70;99.90;;;;;;4896375;29;20195;-76
2023/03/30 12:56:38;;;;;;;1.17;0.40;;;18.60;99.90;;;;;;4880132;29;20231;-75
2023/03/30 12:59:37;;;;;;;2.15;0.40;;;18.60;99.90;;;;;;4884616;29;20227;-76
2023/03/30 13:02:32;;;;;;;1.05;0.40;;;18.60;99.90;;;;;;4893189;29;20217;-75
2023/03/30 13:05:06;;;;;;;1.55;0.40;;;18.50;99.90;;;;;;4896615;29;20211;-75
2023/03/30 13:07:46;;;;;;;0.88;0.45;;;18.50;99.90;;;;;;4898479;29;20191;-76
2023/03/30 13:10:39;;;;;;;1.27;0.40;;;18.40;99.90;;;;;;4896576;29;20209;-75
2023/03/30 13:13:23;;;;;;;1.13;0.50;;;18.40;99.90;;;;;;4889933;29;20207;-76
2023/03/30 13:15:56;;;;;;;0.38;0.38;;;18.40;99.90;;;;;;4897284;29;20231;-76
2023/03/30 13:18:53;;;;;;;1.08;0.43;;;18.40;99.90;;;;;;4893069;29;20222;-76
2023/03/30 13:21:29;;;;;;;1.60;0.50;;;18.40;99.90;;;;;;4896080;29;20663;-76
2023/03/30 13:24:19;;;;;;;0.40;0.30;;;18.40;99.90;;;;;;4897728;29;20558;-77
2023/03/30 13:26:52;;;;;;;0.90;0.50;;;18.30;99.90;;;;;;4898284;29;20201;-76
2023/03/30 13:29:25;;;;;;;2.03;0.43;;;18.30;99.90;;;;;;4897597;29;20290;-76
2023/03/30 13:32:10;;;;;;;0.30;0.30;;;18.30;99.90;;;;;;4898264;29;20191;-76
2023/03/30 13:35:20;;;;;;;0.80;0.40;;;18.30;99.90;;;;;;4888150;29;20207;-76